Terminal Aerodrome Forecast
Issued by NWS Jacksonville, FL

Home | Current Version | Previous Version | Text Only | Print | Product List | Glossary On
Versions: 1 2 3 4 5 6 7 8 9 10 11 12 13 14 15 16 17 18 19 20
000
FTUS42 KJAX 022000 AAD
TAFJAX
TAF AMD
KJAX 022046Z 0221/0318 VRB05KT P6SM VCTS SCT030CB BKN250
      TEMPO 0221/0223 5SM -TSRA BKN030CB
     FM022300 14007KT P6SM FEW040 BKN250
     FM030100 18003KT P6SM SCT250
     FM031400 20004KT P6SM SCT030 SCT250=

USA.gov is the U.S. government's official web portal to all federal, state and local government web resources and services.